sensor_id;sensor_type;location;lat;lon;timestamp;pressure;altitude;pressure_sealevel;temperature;humidity
13011;BME280;6786;57.632;11.962;2023-05-19T00:01:17;102369.09;;;19.26;43.65
13011;BME280;6786;57.632;11.962;2023-05-19T00:03:49;102384.25;;;19.26;43.57
13011;BME280;6786;57.632;11.962;2023-05-19T00:06:24;102362.03;;;19.24;43.64
13011;BME280;6786;57.632;11.962;2023-05-19T00:08:56;102365.50;;;19.26;43.56
13011;BME280;6786;57.632;11.962;2023-05-19T00:11:25;102360.53;;;19.20;43.67
13011;BME280;6786;57.632;11.962;2023-05-19T00:13:54;102281.69;;;18.68;43.62
13011;BME280;6786;57.632;11.962;2023-05-19T00:16:26;102373.53;;;19.26;43.71
13011;BME280;6786;57.632;11.962;2023-05-19T00:18:55;102375.34;;;19.25;43.65
13011;BME280;6786;57.632;11.962;2023-05-19T00:21:26;102369.16;;;19.25;43.66
13011;BME280;6786;57.632;11.962;2023-05-19T00:23:54;102376.22;;;19.26;43.59
13011;BME280;6786;57.632;11.962;2023-05-19T00:26:23;102283.19;;;18.72;43.62
13011;BME280;6786;57.632;11.962;2023-05-19T00:28:52;102371.06;;;19.23;43.54
13011;BME280;6786;57.632;11.962;2023-05-19T00:31:20;102372.75;;;19.24;43.62
13011;BME280;6786;57.632;11.962;2023-05-19T00:33:50;102378.13;;;19.24;43.60
13011;BME280;6786;57.632;11.962;2023-05-19T00:36:18;102379.88;;;19.25;43.58
13011;BME280;6786;57.632;11.962;2023-05-19T00:38:47;102379.88;;;19.25;43.47
13011;BME280;6786;57.632;11.962;2023-05-19T00:41:16;102369.53;;;19.19;43.53
13011;BME280;6786;57.632;11.962;2023-05-19T00:43:44;102374.50;;;19.25;43.52
13011;BME280;6786;57.632;11.962;2023-05-19T00:46:13;102383.50;;;19.24;43.53
13011;BME280;6786;57.632;11.962;2023-05-19T00:48:41;102374.50;;;19.25;43.46
13011;BME280;6786;57.632;11.962;2023-05-19T00:51:13;102376.22;;;19.26;43.50
13011;BME280;6786;57.632;11.962;2023-05-19T00:53:43;102376.31;;;19.24;43.60
13011;BME280;6786;57.632;11.962;2023-05-19T00:56:15;102385.22;;;19.25;43.49
13011;BME280;6786;57.632;11.962;2023-05-19T00:58:43;102373.63;;;19.24;43.49
13011;BME280;6786;57.632;11.962;2023-05-19T01:01:12;102382.56;;;19.25;43.56
13011;BME280;6786;57.632;11.962;2023-05-19T01:03:43;102384.38;;;19.24;43.48
13011;BME280;6786;57.632;11.962;2023-05-19T01:06:14;102378.13;;;19.24;43.38
13011;BME280;6786;57.632;11.962;2023-05-19T01:08:45;102379.88;;;19.25;43.49
13011;BME280;6786;57.632;11.962;2023-05-19T01:11:13;102381.59;;;19.26;43.53
13011;BME280;6786;57.632;11.962;2023-05-19T01:13:41;102387.91;;;19.25;43.55
13011;BME280;6786;57.632;11.962;2023-05-19T01:16:13;102386.06;;;19.25;43.31
13011;BME280;6786;57.632;11.962;2023-05-19T01:18:49;102389.63;;;19.26;43.45
13011;BME280;6786;57.632;11.962;2023-05-19T01:21:42;102383.31;;;19.27;43.16
13011;BME280;6786;57.632;11.962;2023-05-19T01:24:42;102384.25;;;19.26;43.13
13011;BME280;6786;57.632;11.962;2023-05-19T01:27:46;102384.25;;;19.26;43.11
13011;BME280;6786;57.632;11.962;2023-05-19T01:30:32;102389.72;;;19.24;43.21
13011;BME280;6786;57.632;11.962;2023-05-19T01:33:05;102324.91;;;18.90;43.38
13011;BME280;6786;57.632;11.962;2023-05-19T01:35:35;102389.72;;;19.24;43.28
13011;BME280;6786;57.632;11.962;2023-05-19T01:38:07;102394.22;;;19.24;43.30
13011;BME280;6786;57.632;11.962;2023-05-19T01:40:37;102393.38;;;19.23;43.36
13011;BME280;6786;57.632;11.962;2023-05-19T01:43:07;102395.97;;;19.25;43.33
13011;BME280;6786;57.632;11.962;2023-05-19T01:45:37;102389.72;;;19.24;43.38
13011;BME280;6786;57.632;11.962;2023-05-19T01:48:07;102395.97;;;19.25;43.51
13011;BME280;6786;57.632;11.962;2023-05-19T01:50:37;102392.50;;;19.23;43.27
13011;BME280;6786;57.632;11.962;2023-05-19T01:53:06;102390.59;;;19.25;43.25
13011;BME280;6786;57.632;11.962;2023-05-19T01:55:42;102400.34;;;19.26;43.18
13011;BME280;6786;57.632;11.962;2023-05-19T01:58:17;102400.34;;;19.26;43.19
13011;BME280;6786;57.632;11.962;2023-05-19T02:00:53;102389.03;;;19.21;43.22
13011;BME280;6786;57.632;11.962;2023-05-19T02:03:34;102395.00;;;19.26;43.29
13011;BME280;6786;57.632;11.962;2023-05-19T02:06:13;102395.97;;;19.25;43.13
13011;BME280;6786;57.632;11.962;2023-05-19T02:08:50;102393.28;;;19.25;43.24
13011;BME280;6786;57.632;11.962;2023-05-19T02:11:27;102385.03;;;19.14;43.40
13011;BME280;6786;57.632;11.962;2023-05-19T02:14:00;102243.19;;;18.27;43.28
13011;BME280;6786;57.632;11.962;2023-05-19T02:16:31;102396.06;;;19.23;43.17
13011;BME280;6786;57.632;11.962;2023-05-19T02:19:00;102399.56;;;19.24;43.24
13011;BME280;6786;57.632;11.962;2023-05-19T02:21:29;102381.59;;;19.12;43.14
13011;BME280;6786;57.632;11.962;2023-05-19T02:23:57;102395.97;;;19.25;43.13
13011;BME280;6786;57.632;11.962;2023-05-19T02:26:25;102402.16;;;19.25;43.25
13011;BME280;6786;57.632;11.962;2023-05-19T02:28:53;102331.03;;;18.78;43.00
13011;BME280;6786;57.632;11.962;2023-05-19T02:31:21;102313.25;;;18.77;43.11
13011;BME280;6786;57.632;11.962;2023-05-19T02:33:51;102318.78;;;18.74;43.11
13011;BME280;6786;57.632;11.962;2023-05-19T02:36:19;102390.59;;;19.25;43.20
13011;BME280;6786;57.632;11.962;2023-05-19T02:38:47;102289.63;;;18.69;43.18
13011;BME280;6786;57.632;11.962;2023-05-19T02:41:15;102390.59;;;19.25;43.22
13011;BME280;6786;57.632;11.962;2023-05-19T02:43:43;102361.28;;;19.08;43.19
13011;BME280;6786;57.632;11.962;2023-05-19T02:46:12;102390.59;;;19.25;43.09
13011;BME280;6786;57.632;11.962;2023-05-19T02:48:40;102339.47;;;18.86;42.97
13011;BME280;6786;57.632;11.962;2023-05-19T02:51:10;102391.44;;;19.25;43.00
13011;BME280;6786;57.632;11.962;2023-05-19T02:53:38;102395.97;;;19.25;43.09
13011;BME280;6786;57.632;11.962;2023-05-19T02:56:06;102395.97;;;19.25;43.10
13011;BME280;6786;57.632;11.962;2023-05-19T02:58:34;102390.59;;;19.25;43.03
13011;BME280;6786;57.632;11.962;2023-05-19T03:01:02;102400.34;;;19.26;43.10
13011;BME280;6786;57.632;11.962;2023-05-19T03:03:31;102296.03;;;18.67;43.04
13011;BME280;6786;57.632;11.962;2023-05-19T03:05:59;102397.66;;;19.26;43.11
13011;BME280;6786;57.632;11.962;2023-05-19T03:08:29;102389.72;;;19.24;43.01
13011;BME280;6786;57.632;11.962;2023-05-19T03:10:57;102390.59;;;19.25;43.03
13011;BME280;6786;57.632;11.962;2023-05-19T03:13:25;102396.88;;;19.24;43.08
13011;BME280;6786;57.632;11.962;2023-05-19T03:15:54;102392.50;;;19.23;43.04
13011;BME280;6786;57.632;11.962;2023-05-19T03:18:24;102309.97;;;18.72;43.04
13011;BME280;6786;57.632;11.962;2023-05-19T03:20:53;102392.50;;;19.23;43.00
13011;BME280;6786;57.632;11.962;2023-05-19T03:23:22;102388.00;;;19.23;42.92
13011;BME280;6786;57.632;11.962;2023-05-19T03:25:51;102396.88;;;19.24;42.85
13011;BME280;6786;57.632;11.962;2023-05-19T03:28:21;102395.97;;;19.25;42.94
13011;BME280;6786;57.632;11.962;2023-05-19T03:30:49;102394.22;;;19.24;42.91
13011;BME280;6786;57.632;11.962;2023-05-19T03:33:18;102395.97;;;19.25;43.01
13011;BME280;6786;57.632;11.962;2023-05-19T03:35:46;102395.97;;;19.25;42.99
13011;BME280;6786;57.632;11.962;2023-05-19T03:38:14;102389.91;;;19.21;42.86
13011;BME280;6786;57.632;11.962;2023-05-19T03:40:42;102399.56;;;19.24;42.89
13011;BME280;6786;57.632;11.962;2023-05-19T03:43:12;102400.44;;;19.24;42.95
13011;BME280;6786;57.632;11.962;2023-05-19T03:45:41;102402.25;;;19.24;42.90
13011;BME280;6786;57.632;11.962;2023-05-19T03:48:09;102410.28;;;19.24;42.91
13011;BME280;6786;57.632;11.962;2023-05-19T03:50:38;102399.56;;;19.24;42.80
13011;BME280;6786;57.632;11.962;2023-05-19T03:53:06;102407.63;;;19.24;42.69
13011;BME280;6786;57.632;11.962;2023-05-19T03:55:35;102333.34;;;18.70;42.69
13011;BME280;6786;57.632;11.962;2023-05-19T03:58:03;102410.28;;;19.24;42.95
13011;BME280;6786;57.632;11.962;2023-05-19T04:00:33;102406.69;;;19.25;42.83
13011;BME280;6786;57.632;11.962;2023-05-19T04:03:01;102406.69;;;19.25;42.83
13011;BME280;6786;57.632;11.962;2023-05-19T04:05:30;102404.00;;;19.25;42.77
13011;BME280;6786;57.632;11.962;2023-05-19T04:07:58;102404.94;;;19.24;42.88
13011;BME280;6786;57.632;11.962;2023-05-19T04:10:26;102408.50;;;19.24;42.92
13011;BME280;6786;57.632;11.962;2023-05-19T04:12:54;102408.59;;;19.23;42.89
13011;BME280;6786;57.632;11.962;2023-05-19T04:15:22;102334.28;;;18.69;42.80
13011;BME280;6786;57.632;11.962;2023-05-19T04:17:52;102404.94;;;19.24;42.85
13011;BME280;6786;57.632;11.962;2023-05-19T04:20:20;102412.03;;;19.25;42.89
13011;BME280;6786;57.632;11.962;2023-05-19T04:22:48;102364.72;;;18.96;42.80
13011;BME280;6786;57.632;11.962;2023-05-19T04:25:17;102406.09;;;19.20;42.76
13011;BME280;6786;57.632;11.962;2023-05-19T04:27:46;102422.09;;;19.21;42.88
13011;BME280;6786;57.632;11.962;2023-05-19T04:30:14;102349.22;;;18.87;42.69
13011;BME280;6786;57.632;11.962;2023-05-19T04:32:48;102266.56;;;18.23;42.93
13011;BME280;6786;57.632;11.962;2023-05-19T04:35:18;102414.91;;;19.22;42.79
13011;BME280;6786;57.632;11.962;2023-05-19T04:37:46;102412.22;;;19.22;42.80
13011;BME280;6786;57.632;11.962;2023-05-19T04:40:14;102434.41;;;19.24;42.98
13011;BME280;6786;57.632;11.962;2023-05-19T04:42:43;102424.66;;;19.23;43.10
13011;BME280;6786;57.632;11.962;2023-05-19T04:45:12;102423.69;;;19.24;42.84
13011;BME280;6786;57.632;11.962;2023-05-19T04:47:40;102428.13;;;19.25;42.86
13011;BME280;6786;57.632;11.962;2023-05-19T04:50:09;102425.53;;;19.23;42.80
13011;BME280;6786;57.632;11.962;2023-05-19T04:52:39;102426.38;;;19.24;42.73
13011;BME280;6786;57.632;11.962;2023-05-19T04:55:07;102348.53;;;18.69;42.81
13011;BME280;6786;57.632;11.962;2023-05-19T04:57:37;102343.69;;;18.76;42.81
13011;BME280;6786;57.632;11.962;2023-05-19T05:00:06;102422.94;;;19.22;42.84
13011;BME280;6786;57.632;11.962;2023-05-19T05:02:37;102364.91;;;18.79;42.76
13011;BME280;6786;57.632;11.962;2023-05-19T05:05:07;102348.84;;;18.79;42.81
13011;BME280;6786;57.632;11.962;2023-05-19T05:07:36;102428.31;;;19.22;42.82
13011;BME280;6786;57.632;11.962;2023-05-19T05:10:07;102414.50;;;19.14;42.69
13011;BME280;6786;57.632;11.962;2023-05-19T05:12:36;102421.03;;;19.24;42.84
13011;BME280;6786;57.632;11.962;2023-05-19T05:15:06;102412.63;;;19.16;43.05
13011;BME280;6786;57.632;11.962;2023-05-19T05:17:34;102430.03;;;19.23;42.63
13011;BME280;6786;57.632;11.962;2023-05-19T05:20:04;102294.56;;;18.47;42.84
13011;BME280;6786;57.632;11.962;2023-05-19T05:22:33;102426.38;;;19.24;42.91
13011;BME280;6786;57.632;11.962;2023-05-19T05:25:02;102429.06;;;19.24;42.75
13011;BME280;6786;57.632;11.962;2023-05-19T05:27:33;102430.91;;;19.23;42.86
13011;BME280;6786;57.632;11.962;2023-05-19T05:30:01;102436.25;;;19.23;42.78
13011;BME280;6786;57.632;11.962;2023-05-19T05:32:29;102412.91;;;19.11;42.93
13011;BME280;6786;57.632;11.962;2023-05-19T05:34:58;102429.06;;;19.24;42.87
13011;BME280;6786;57.632;11.962;2023-05-19T05:37:26;102429.25;;;19.21;42.84
13011;BME280;6786;57.632;11.962;2023-05-19T05:39:54;102388.00;;;18.95;42.81
13011;BME280;6786;57.632;11.962;2023-05-19T05:42:22;102437.09;;;19.24;42.81
13011;BME280;6786;57.632;11.962;2023-05-19T05:44:53;102431.75;;;19.24;42.81
13011;BME280;6786;57.632;11.962;2023-05-19T05:47:22;102438.84;;;19.25;42.86
13011;BME280;6786;57.632;11.962;2023-05-19T05:49:51;102438.84;;;19.25;42.88
13011;BME280;6786;57.632;11.962;2023-05-19T05:52:20;102440.56;;;19.26;42.90
13011;BME280;6786;57.632;11.962;2023-05-19T05:54:49;102419.22;;;19.10;42.92
13011;BME280;6786;57.632;11.962;2023-05-19T05:57:18;102444.22;;;19.25;42.90
13011;BME280;6786;57.632;11.962;2023-05-19T05:59:46;102444.22;;;19.25;42.79
13011;BME280;6786;57.632;11.962;2023-05-19T06:02:17;102444.22;;;19.25;42.91
13011;BME280;6786;57.632;11.962;2023-05-19T06:04:46;102442.47;;;19.24;42.88
13011;BME280;6786;57.632;11.962;2023-05-19T06:07:14;102449.56;;;19.25;42.83
13011;BME280;6786;57.632;11.962;2023-05-19T06:09:42;102455.78;;;19.25;42.79
13011;BME280;6786;57.632;11.962;2023-05-19T06:12:10;102446.88;;;19.25;42.87
13011;BME280;6786;57.632;11.962;2023-05-19T06:14:38;102445.06;;;19.25;42.95
13011;BME280;6786;57.632;11.962;2023-05-19T06:17:06;102454.94;;;19.25;42.84
13011;BME280;6786;57.632;11.962;2023-05-19T06:19:36;102375.63;;;18.79;42.97
13011;BME280;6786;57.632;11.962;2023-05-19T06:22:04;102458.47;;;19.25;42.93
13011;BME280;6786;57.632;11.962;2023-05-19T06:24:32;102460.28;;;19.25;42.94
13011;BME280;6786;57.632;11.962;2023-05-19T06:27:03;102454.94;;;19.25;42.89
13011;BME280;6786;57.632;11.962;2023-05-19T06:29:32;102465.66;;;19.25;42.85
13011;BME280;6786;57.632;11.962;2023-05-19T06:32:00;102398.03;;;18.92;42.83
13011;BME280;6786;57.632;11.962;2023-05-19T06:34:28;102460.28;;;19.25;42.84
13011;BME280;6786;57.632;11.962;2023-05-19T06:36:58;102449.34;;;19.14;43.17
13011;BME280;6786;57.632;11.962;2023-05-19T06:39:28;102399.19;;;18.88;42.98
13011;BME280;6786;57.632;11.962;2023-05-19T06:41:56;102465.66;;;19.25;42.98
13011;BME280;6786;57.632;11.962;2023-05-19T06:44:24;102467.38;;;19.26;42.95
13011;BME280;6786;57.632;11.962;2023-05-19T06:46:52;102462.97;;;19.25;43.00
13011;BME280;6786;57.632;11.962;2023-05-19T06:49:20;102459.44;;;19.24;43.04
13011;BME280;6786;57.632;11.962;2023-05-19T06:51:49;102458.56;;;19.24;43.01
13011;BME280;6786;57.632;11.962;2023-05-19T06:54:19;102462.09;;;19.24;42.95
13011;BME280;6786;57.632;11.962;2023-05-19T06:56:47;102471.03;;;19.25;43.02
13011;BME280;6786;57.632;11.962;2023-05-19T06:59:15;102478.09;;;19.26;42.96
13011;BME280;6786;57.632;11.962;2023-05-19T07:01:43;102476.38;;;19.25;43.06
13011;BME280;6786;57.632;11.962;2023-05-19T07:04:12;102480.88;;;19.24;43.03
13011;BME280;6786;57.632;11.962;2023-05-19T07:06:40;102332.06;;;18.32;43.04
13011;BME280;6786;57.632;11.962;2023-05-19T07:09:08;102486.22;;;19.24;43.03
13011;BME280;6786;57.632;11.962;2023-05-19T07:11:38;102478.28;;;19.23;43.08
13011;BME280;6786;57.632;11.962;2023-05-19T07:14:06;102378.47;;;18.62;43.00
13011;BME280;6786;57.632;11.962;2023-05-19T07:16:34;102487.94;;;19.25;42.96
13011;BME280;6786;57.632;11.962;2023-05-19T07:19:02;102487.09;;;19.25;43.01
13011;BME280;6786;57.632;11.962;2023-05-19T07:21:31;102483.47;;;19.26;43.14
13011;BME280;6786;57.632;11.962;2023-05-19T07:23:59;102490.56;;;19.27;43.07
13011;BME280;6786;57.632;11.962;2023-05-19T07:26:28;102489.00;;;19.23;43.03
13011;BME280;6786;57.632;11.962;2023-05-19T07:28:57;102490.56;;;19.27;43.09
13011;BME280;6786;57.632;11.962;2023-05-19T07:31:25;102490.56;;;19.27;42.95
13011;BME280;6786;57.632;11.962;2023-05-19T07:33:54;102418.88;;;18.73;42.83
13011;BME280;6786;57.632;11.962;2023-05-19T07:36:22;102501.28;;;19.27;43.10
13011;BME280;6786;57.632;11.962;2023-05-19T07:38:50;102495.94;;;19.27;43.10
13011;BME280;6786;57.632;11.962;2023-05-19T07:41:18;102495.94;;;19.27;43.14
13011;BME280;6786;57.632;11.962;2023-05-19T07:43:47;102501.28;;;19.27;42.95
13011;BME280;6786;57.632;11.962;2023-05-19T07:46:17;102493.25;;;19.27;43.15
13011;BME280;6786;57.632;11.962;2023-05-19T07:48:45;102498.59;;;19.27;43.14
13011;BME280;6786;57.632;11.962;2023-05-19T07:51:13;102479.53;;;19.17;43.16
13011;BME280;6786;57.632;11.962;2023-05-19T07:53:41;102483.47;;;19.26;43.16
13011;BME280;6786;57.632;11.962;2023-05-19T07:56:10;102501.28;;;19.27;43.05
13011;BME280;6786;57.632;11.962;2023-05-19T07:58:39;102495.94;;;19.27;43.17
13011;BME280;6786;57.632;11.962;2023-05-19T08:01:07;102495.94;;;19.27;43.06
13011;BME280;6786;57.632;11.962;2023-05-19T08:03:37;102432.63;;;18.81;43.13
13011;BME280;6786;57.632;11.962;2023-05-19T08:06:05;102493.59;;;19.21;43.10
13011;BME280;6786;57.632;11.962;2023-05-19T08:08:33;102492.47;;;19.25;43.28
13011;BME280;6786;57.632;11.962;2023-05-19T08:11:02;102414.84;;;18.80;43.21
13011;BME280;6786;57.632;11.962;2023-05-19T08:13:31;102413.31;;;18.76;42.92
13011;BME280;6786;57.632;11.962;2023-05-19T08:16:00;102485.22;;;19.27;43.14
13011;BME280;6786;57.632;11.962;2023-05-19T08:18:28;102482.53;;;19.27;43.13
13011;BME280;6786;57.632;11.962;2023-05-19T08:20:58;102477.16;;;19.27;43.19
13011;BME280;6786;57.632;11.962;2023-05-19T08:23:27;102482.53;;;19.27;43.13
13011;BME280;6786;57.632;11.962;2023-05-19T08:25:55;102479.00;;;19.26;43.13
13011;BME280;6786;57.632;11.962;2023-05-19T08:28:23;102487.88;;;19.27;43.02
13011;BME280;6786;57.632;11.962;2023-05-19T08:30:51;102491.44;;;19.27;43.22
13011;BME280;6786;57.632;11.962;2023-05-19T08:33:20;102490.56;;;19.27;43.14
13011;BME280;6786;57.632;11.962;2023-05-19T08:35:48;102490.56;;;19.27;43.17
13011;BME280;6786;57.632;11.962;2023-05-19T08:38:18;102497.69;;;19.28;43.30
13011;BME280;6786;57.632;11.962;2023-05-19T08:40:46;102488.81;;;19.26;43.17
13011;BME280;6786;57.632;11.962;2023-05-19T08:43:15;102470.72;;;19.15;43.17
13011;BME280;6786;57.632;11.962;2023-05-19T08:45:44;102492.31;;;19.28;43.13
13011;BME280;6786;57.632;11.962;2023-05-19T08:48:16;102487.09;;;19.25;43.23
13011;BME280;6786;57.632;11.962;2023-05-19T08:50:51;102427.69;;;18.89;43.15
13011;BME280;6786;57.632;11.962;2023-05-19T08:53:26;102479.22;;;19.08;43.29
13011;BME280;6786;57.632;11.962;2023-05-19T08:56:03;102501.28;;;19.27;43.07
13011;BME280;6786;57.632;11.962;2023-05-19T08:58:37;102470.91;;;19.12;43.17
13011;BME280;6786;57.632;11.962;2023-05-19T09:01:06;102496.81;;;19.27;43.29
13011;BME280;6786;57.632;11.962;2023-05-19T09:03:35;102484.88;;;19.17;43.20
13011;BME280;6786;57.632;11.962;2023-05-19T09:06:05;102432.63;;;18.81;43.31
13011;BME280;6786;57.632;11.962;2023-05-19T09:08:35;102491.09;;;19.18;43.14
13011;BME280;6786;57.632;11.962;2023-05-19T09:11:04;102500.34;;;19.28;43.25
13011;BME280;6786;57.632;11.962;2023-05-19T09:13:32;102493.16;;;19.28;43.21
13011;BME280;6786;57.632;11.962;2023-05-19T09:16:01;102495.00;;;19.28;43.26
13011;BME280;6786;57.632;11.962;2023-05-19T09:18:30;102490.56;;;19.27;43.06
13011;BME280;6786;57.632;11.962;2023-05-19T09:20:59;102495.94;;;19.27;43.25
13011;BME280;6786;57.632;11.962;2023-05-19T09:23:30;102502.16;;;19.27;43.34
13011;BME280;6786;57.632;11.962;2023-05-19T09:26:02;102495.94;;;19.27;43.23
13011;BME280;6786;57.632;11.962;2023-05-19T09:28:34;102495.94;;;19.27;43.22
13011;BME280;6786;57.632;11.962;2023-05-19T09:31:05;102501.28;;;19.27;43.28
13011;BME280;6786;57.632;11.962;2023-05-19T09:33:35;102432.47;;;18.84;43.24
13011;BME280;6786;57.632;11.962;2023-05-19T09:36:04;102497.69;;;19.28;43.22
13011;BME280;6786;57.632;11.962;2023-05-19T09:38:35;102496.81;;;19.27;43.24
13011;BME280;6786;57.632;11.962;2023-05-19T09:41:05;102488.03;;;19.24;43.25
13011;BME280;6786;57.632;11.962;2023-05-19T09:43:34;102487.78;;;19.28;43.14
13011;BME280;6786;57.632;11.962;2023-05-19T09:46:03;102479.75;;;19.28;43.29
13011;BME280;6786;57.632;11.962;2023-05-19T09:48:32;102488.66;;;19.29;43.35
13011;BME280;6786;57.632;11.962;2023-05-19T09:51:03;102455.88;;;19.10;43.17
13011;BME280;6786;57.632;11.962;2023-05-19T09:53:33;102487.78;;;19.28;43.33
13011;BME280;6786;57.632;11.962;2023-05-19T09:56:02;102487.88;;;19.27;43.23
13011;BME280;6786;57.632;11.962;2023-05-19T09:58:32;102483.31;;;19.29;43.30
13011;BME280;6786;57.632;11.962;2023-05-19T10:01:03;102474.63;;;19.24;43.29
13011;BME280;6786;57.632;11.962;2023-05-19T10:03:32;102475.50;;;19.24;43.37
13011;BME280;6786;57.632;11.962;2023-05-19T10:06:03;102481.59;;;19.28;43.24
13011;BME280;6786;57.632;11.962;2023-05-19T10:08:32;102488.66;;;19.29;43.35
13011;BME280;6786;57.632;11.962;2023-05-19T10:11:02;102477.94;;;19.29;43.33
13011;BME280;6786;57.632;11.962;2023-05-19T10:13:34;102396.19;;;18.78;43.18
13011;BME280;6786;57.632;11.962;2023-05-19T10:16:04;102483.31;;;19.29;43.27
13011;BME280;6786;57.632;11.962;2023-05-19T10:18:34;102432.22;;;19.02;43.32
13011;BME280;6786;57.632;11.962;2023-05-19T10:21:06;102466.34;;;19.28;43.24
13011;BME280;6786;57.632;11.962;2023-05-19T10:23:34;102477.94;;;19.29;43.33
13011;BME280;6786;57.632;11.962;2023-05-19T10:26:04;102476.22;;;19.28;43.34
13011;BME280;6786;57.632;11.962;2023-05-19T10:28:37;102402.63;;;18.76;43.31
13011;BME280;6786;57.632;11.962;2023-05-19T10:31:08;102478.91;;;19.28;43.34
13011;BME280;6786;57.632;11.962;2023-05-19T10:33:50;102463.75;;;19.27;43.34
13011;BME280;6786;57.632;11.962;2023-05-19T10:36:36;102460.28;;;19.25;43.46
13011;BME280;6786;57.632;11.962;2023-05-19T10:39:10;102465.50;;;19.28;43.27
13011;BME280;6786;57.632;11.962;2023-05-19T10:41:48;102467.56;;;19.23;43.31
13011;BME280;6786;57.632;11.962;2023-05-19T10:44:32;102463.75;;;19.27;43.48
13011;BME280;6786;57.632;11.962;2023-05-19T10:47:05;102404.75;;;18.85;43.56
13011;BME280;6786;57.632;11.962;2023-05-19T10:49:34;102471.81;;;19.27;43.36
13011;BME280;6786;57.632;11.962;2023-05-19T10:52:02;102474.63;;;19.24;43.39
13011;BME280;6786;57.632;11.962;2023-05-19T10:54:40;102478.91;;;19.28;43.45
13011;BME280;6786;57.632;11.962;2023-05-19T10:57:13;102464.28;;;19.18;43.51
13011;BME280;6786;57.632;11.962;2023-05-19T10:59:44;102481.59;;;19.28;43.53
13011;BME280;6786;57.632;11.962;2023-05-19T11:02:37;102446.69;;;19.14;43.62
13011;BME280;6786;57.632;11.962;2023-05-19T11:05:13;102344.97;;;18.55;43.43
13011;BME280;6786;57.632;11.962;2023-05-19T11:07:54;102455.97;;;19.22;43.54
13011;BME280;6786;57.632;11.962;2023-05-19T11:10:23;102463.91;;;19.24;43.48
13011;BME280;6786;57.632;11.962;2023-05-19T11:12:51;102467.38;;;19.26;43.47
13011;BME280;6786;57.632;11.962;2023-05-19T11:15:24;102398.97;;;18.77;43.41
13011;BME280;6786;57.632;11.962;2023-05-19T11:17:53;102473.53;;;19.28;43.56
13011;BME280;6786;57.632;11.962;2023-05-19T11:20:23;102477.94;;;19.29;43.51
13011;BME280;6786;57.632;11.962;2023-05-19T11:23:04;102385.66;;;18.75;43.41
13011;BME280;6786;57.632;11.962;2023-05-19T11:25:40;102470.88;;;19.28;43.61
13011;BME280;6786;57.632;11.962;2023-05-19T11:28:10;102467.38;;;19.26;43.54
13011;BME280;6786;57.632;11.962;2023-05-19T11:30:43;102471.81;;;19.27;43.56
13011;BME280;6786;57.632;11.962;2023-05-19T11:33:11;102307.03;;;18.33;43.54
13011;BME280;6786;57.632;11.962;2023-05-19T11:35:40;102335.00;;;18.43;43.58
13011;BME280;6786;57.632;11.962;2023-05-19T11:38:10;102464.63;;;19.27;43.64
13011;BME280;6786;57.632;11.962;2023-05-19T11:40:40;102369.31;;;18.66;43.67
13011;BME280;6786;57.632;11.962;2023-05-19T11:43:09;102308.25;;;18.27;43.66
13011;BME280;6786;57.632;11.962;2023-05-19T11:45:37;102465.50;;;19.28;43.61
13011;BME280;6786;57.632;11.962;2023-05-19T11:48:09;102465.50;;;19.28;43.67
13011;BME280;6786;57.632;11.962;2023-05-19T11:50:40;102460.16;;;19.28;43.63
13011;BME280;6786;57.632;11.962;2023-05-19T11:53:11;102451.13;;;19.29;43.72
13011;BME280;6786;57.632;11.962;2023-05-19T11:55:44;102452.84;;;19.30;43.72
13011;BME280;6786;57.632;11.962;2023-05-19T11:58:13;102427.03;;;19.13;43.72
13011;BME280;6786;57.632;11.962;2023-05-19T12:00:43;102450.16;;;19.30;43.65
13011;BME280;6786;57.632;11.962;2023-05-19T12:03:13;102461.84;;;19.29;43.77
13011;BME280;6786;57.632;11.962;2023-05-19T12:05:44;102461.84;;;19.29;43.77
13011;BME280;6786;57.632;11.962;2023-05-19T12:08:15;102383.31;;;18.85;43.77
13011;BME280;6786;57.632;11.962;2023-05-19T12:10:46;102451.13;;;19.29;43.72
13011;BME280;6786;57.632;11.962;2023-05-19T12:13:15;102450.25;;;19.28;43.74
13011;BME280;6786;57.632;11.962;2023-05-19T12:15:43;102402.81;;;18.87;43.76
13011;BME280;6786;57.632;11.962;2023-05-19T12:18:13;102459.19;;;19.29;43.68
13011;BME280;6786;57.632;11.962;2023-05-19T12:20:42;102460.16;;;19.28;43.79
13011;BME280;6786;57.632;11.962;2023-05-19T12:23:11;102461.84;;;19.29;43.74
13011;BME280;6786;57.632;11.962;2023-05-19T12:25:40;102459.19;;;19.29;43.75
13011;BME280;6786;57.632;11.962;2023-05-19T12:28:08;102373.88;;;18.78;43.72
13011;BME280;6786;57.632;11.962;2023-05-19T12:30:37;102438.84;;;19.25;43.75
13011;BME280;6786;57.632;11.962;2023-05-19T12:33:05;102379.06;;;18.81;43.71
13011;BME280;6786;57.632;11.962;2023-05-19T12:35:36;102440.41;;;19.29;43.84
13011;BME280;6786;57.632;11.962;2023-05-19T12:38:05;102447.47;;;19.30;43.82
13011;BME280;6786;57.632;11.962;2023-05-19T12:40:34;102445.78;;;19.29;43.81
13011;BME280;6786;57.632;11.962;2023-05-19T12:43:04;102445.78;;;19.29;43.85
13011;BME280;6786;57.632;11.962;2023-05-19T12:45:33;102445.78;;;19.29;43.79
13011;BME280;6786;57.632;11.962;2023-05-19T12:48:03;102438.25;;;19.20;43.65
13011;BME280;6786;57.632;11.962;2023-05-19T12:50:33;102445.78;;;19.29;43.79
13011;BME280;6786;57.632;11.962;2023-05-19T12:53:07;102435.91;;;19.29;43.87
13011;BME280;6786;57.632;11.962;2023-05-19T12:55:37;102440.41;;;19.29;43.76
13011;BME280;6786;57.632;11.962;2023-05-19T12:58:08;102435.03;;;19.29;43.91
13011;BME280;6786;57.632;11.962;2023-05-19T13:00:40;102436.75;;;19.30;43.75
13011;BME280;6786;57.632;11.962;2023-05-19T13:03:15;102332.66;;;18.66;43.74
13011;BME280;6786;57.632;11.962;2023-05-19T13:05:44;102398.53;;;19.12;43.62